Time;durP1;ratioP1;P1;durP2;ratioP2;P2;SDS_P1;SDS_P2;PMS_P1;PMS_P2;Temp;Humidity;BMP_temperature;BMP_pressure;BME280_temperature;BME280_humidity;BME280_pressure;Samples;Min_cycle;Max_cycle;Signal;HPM_P1;HPM_P2
2022/01/04 00:01:17;;;;;;;9.43;7.28;;;10.30;99.90;;;;;;5047111;28;20047;-43
2022/01/04 00:03:42;;;;;;;10.07;8.27;;;10.30;99.90;;;;;;5047013;28;20031;-44
2022/01/04 00:06:09;;;;;;;10.82;9.27;;;10.20;99.90;;;;;;5046784;28;20059;-43
2022/01/04 00:08:35;;;;;;;9.18;8.02;;;10.20;99.90;;;;;;5046588;28;20032;-44
2022/01/04 00:11:14;;;;;;;10.40;8.98;;;10.20;99.90;;;;;;5047048;28;20025;-43
2022/01/04 00:13:39;;;;;;;10.18;7.63;;;10.10;99.90;;;;;;5047005;28;20139;-42
2022/01/04 00:16:07;;;;;;;9.60;8.30;;;10.00;99.90;;;;;;5046705;28;20564;-43
2022/01/04 00:18:33;;;;;;;8.60;7.30;;;10.00;99.90;;;;;;5045762;28;20037;-44
2022/01/04 00:20:59;;;;;;;11.48;8.50;;;9.90;99.90;;;;;;5046798;28;20021;-42
2022/01/04 00:23:25;;;;;;;10.48;7.90;;;9.90;99.90;;;;;;5046555;28;20036;-43
2022/01/04 00:25:51;;;;;;;11.55;8.70;;;10.00;99.90;;;;;;5046338;28;20650;-44
2022/01/04 00:28:16;;;;;;;7.13;6.43;;;10.00;99.90;;;;;;5047090;28;20477;-44
2022/01/04 00:30:43;;;;;;;11.60;8.48;;;10.00;99.90;;;;;;5045734;28;20052;-43
2022/01/04 00:33:11;;;;;;;9.13;7.15;;;10.00;99.90;;;;;;5046941;28;20040;-43
2022/01/04 00:35:38;;;;;;;8.50;7.60;;;10.00;99.90;;;;;;5046883;28;20014;-44
2022/01/04 00:38:04;;;;;;;9.63;7.95;;;10.10;99.90;;;;;;5046041;28;20028;-43
2022/01/04 00:40:30;;;;;;;7.57;6.72;;;10.10;99.90;;;;;;5046611;28;20029;-43
2022/01/04 00:42:58;;;;;;;7.57;6.35;;;10.10;99.90;;;;;;5046094;28;20068;-43
2022/01/04 00:45:24;;;;;;;7.72;6.72;;;10.10;99.90;;;;;;5046793;28;20029;-43
2022/01/04 00:50:19;;;;;;;8.00;6.22;;;10.10;99.90;;;;;;5045879;28;20052;-43
2022/01/04 00:52:44;;;;;;;7.13;6.38;;;10.10;99.90;;;;;;5046949;28;20080;-43
2022/01/04 00:55:10;;;;;;;9.88;7.15;;;10.10;99.90;;;;;;5046365;28;20398;-44
2022/01/04 00:57:35;;;;;;;9.18;7.40;;;10.10;99.90;;;;;;5046150;28;20457;-42
2022/01/04 01:00:02;;;;;;;9.90;7.13;;;10.10;99.90;;;;;;5046407;28;20049;-43
2022/01/04 01:02:27;;;;;;;7.13;6.22;;;10.10;99.90;;;;;;5046321;28;20025;-44
2022/01/04 01:04:53;;;;;;;8.25;6.45;;;10.10;99.90;;;;;;5046171;28;20036;-43
2022/01/04 01:07:18;;;;;;;7.20;6.30;;;10.10;99.90;;;;;;5046448;28;20385;-44
2022/01/04 01:10:45;;;;;;;8.23;6.78;;;10.10;99.90;;;;;;5046616;28;20029;-42
2022/01/04 01:12:42;;;;;;;9.18;6.88;;;10.20;99.90;;;;;;5041873;28;20036;-43
2022/01/04 01:15:09;;;;;;;8.00;6.20;;;10.20;99.90;;;;;;5046477;28;20029;-43
2022/01/04 01:17:34;;;;;;;8.55;7.70;;;10.10;99.90;;;;;;5045757;28;20335;-42
2022/01/04 01:20:03;;;;;;;9.32;7.50;;;10.20;99.90;;;;;;5045718;28;20497;-45
2022/01/04 01:22:28;;;;;;;9.13;8.20;;;10.20;99.90;;;;;;5045939;28;20018;-42
2022/01/04 01:24:54;;;;;;;7.55;6.75;;;10.20;99.90;;;;;;5046381;28;20043;-43
2022/01/04 01:27:19;;;;;;;8.98;8.07;;;10.20;99.90;;;;;;5045983;28;20388;-43
2022/01/04 01:29:45;;;;;;;9.75;7.63;;;10.20;99.90;;;;;;5048160;28;20469;-44
2022/01/04 01:32:10;;;;;;;8.45;7.32;;;10.20;99.90;;;;;;5048784;28;20079;-42
2022/01/04 01:34:36;;;;;;;8.20;7.40;;;10.20;99.90;;;;;;5050274;28;20052;-43
2022/01/04 01:37:02;;;;;;;11.15;7.95;;;10.20;99.90;;;;;;5049420;28;20025;-43
2022/01/04 01:39:27;;;;;;;10.40;7.80;;;10.20;99.90;;;;;;5049190;28;20048;-43
2022/01/04 01:41:53;;;;;;;7.90;6.65;;;10.20;99.90;;;;;;5049470;28;20055;-43
2022/01/04 01:44:20;;;;;;;11.18;7.57;;;10.20;99.90;;;;;;5049939;28;20055;-43
2022/01/04 01:46:45;;;;;;;8.63;7.63;;;10.20;99.90;;;;;;5048938;28;20036;-43
2022/01/04 01:49:11;;;;;;;7.85;6.30;;;10.20;99.90;;;;;;5049561;28;20392;-43
2022/01/04 01:51:36;;;;;;;10.85;8.00;;;10.20;99.90;;;;;;5049561;28;20013;-41
2022/01/04 01:54:05;;;;;;;7.70;6.82;;;10.20;99.90;;;;;;5049411;28;20419;-44
2022/01/04 01:56:30;;;;;;;8.30;6.90;;;10.20;99.90;;;;;;5049113;28;20021;-43
2022/01/04 01:58:57;;;;;;;10.45;8.10;;;10.20;99.90;;;;;;5049090;28;20032;-43
2022/01/04 02:01:22;;;;;;;10.25;8.63;;;10.20;99.90;;;;;;5049077;28;20033;-42
2022/01/04 02:03:48;;;;;;;7.93;7.13;;;10.20;99.90;;;;;;5048777;28;20440;-44
2022/01/04 02:06:14;;;;;;;9.07;7.75;;;10.20;99.90;;;;;;5050128;28;20562;-44
2022/01/04 02:08:40;;;;;;;8.30;7.07;;;10.20;99.90;;;;;;5047864;28;20484;-42
2022/01/04 02:11:05;;;;;;;9.55;8.15;;;10.20;99.90;;;;;;5049321;28;20119;-42
2022/01/04 02:13:31;;;;;;;10.85;9.23;;;10.10;99.90;;;;;;5049322;28;20097;-44
2022/01/04 02:15:57;;;;;;;10.05;9.02;;;10.10;99.90;;;;;;5048530;28;20115;-43
2022/01/04 02:18:23;;;;;;;12.68;10.00;;;10.10;99.90;;;;;;5048605;28;20037;-44
2022/01/04 02:20:49;;;;;;;9.30;8.32;;;10.10;99.90;;;;;;5049070;28;20071;-43
2022/01/04 02:23:16;;;;;;;10.43;9.32;;;10.10;99.90;;;;;;5048182;28;20104;-44
2022/01/04 02:25:42;;;;;;;9.60;8.60;;;10.10;99.90;;;;;;5049407;28;20069;-43
2022/01/04 02:28:07;;;;;;;9.75;8.60;;;10.10;99.90;;;;;;5048797;28;20064;-43
2022/01/04 02:30:33;;;;;;;8.88;7.50;;;10.10;99.90;;;;;;5048261;28;20082;-43
2022/01/04 02:32:59;;;;;;;10.10;9.05;;;10.10;99.90;;;;;;5048486;28;20479;-43
2022/01/04 02:35:30;;;;;;;10.55;9.45;;;10.10;99.90;;;;;;5048544;28;20025;-43
2022/01/04 02:37:58;;;;;;;11.80;9.25;;;10.10;99.90;;;;;;5049062;28;20047;-42
2022/01/04 02:40:25;;;;;;;12.02;10.75;;;10.10;99.90;;;;;;5047805;28;20459;-43
2022/01/04 02:42:51;;;;;;;10.30;8.90;;;10.10;99.90;;;;;;5047735;28;20112;-43
2022/01/04 02:45:17;;;;;;;10.65;9.02;;;10.00;99.90;;;;;;5048258;28;20025;-42
2022/01/04 02:47:42;;;;;;;10.20;8.88;;;10.10;99.90;;;;;;5048717;28;20087;-43
2022/01/04 02:50:09;;;;;;;8.90;8.00;;;10.00;99.90;;;;;;5047627;28;20098;-41
2022/01/04 02:52:35;;;;;;;11.23;9.57;;;10.00;99.90;;;;;;5048533;28;20036;-43
2022/01/04 02:55:06;;;;;;;11.07;8.93;;;10.00;99.90;;;;;;5048279;28;20029;-42
2022/01/04 02:57:31;;;;;;;9.50;8.18;;;10.00;99.90;;;;;;5047681;28;20493;-42
2022/01/04 02:59:57;;;;;;;10.32;8.45;;;10.00;99.90;;;;;;5047920;28;20465;-43
2022/01/04 03:02:23;;;;;;;11.00;7.93;;;10.00;99.90;;;;;;5048227;28;20078;-44
2022/01/04 03:04:49;;;;;;;10.75;9.65;;;10.00;99.90;;;;;;5047696;28;20037;-43
2022/01/04 03:07:17;;;;;;;10.40;9.40;;;10.00;99.90;;;;;;5048497;28;20040;-42
2022/01/04 03:09:43;;;;;;;10.68;9.52;;;10.00;99.90;;;;;;5047657;28;20029;-43
2022/01/04 03:12:09;;;;;;;8.57;7.78;;;10.00;99.90;;;;;;5048057;28;20025;-42
2022/01/04 03:14:35;;;;;;;9.35;8.45;;;10.00;99.90;;;;;;5048018;28;20051;-44
2022/01/04 03:17:02;;;;;;;8.75;7.72;;;10.00;99.90;;;;;;5047798;28;20485;-43
2022/01/04 03:19:27;;;;;;;8.60;7.80;;;10.00;99.90;;;;;;5047603;28;20029;-42
2022/01/04 03:21:53;;;;;;;10.25;7.45;;;9.90;99.90;;;;;;5047758;28;20384;-43
2022/01/04 03:24:18;;;;;;;7.75;6.88;;;9.90;99.90;;;;;;5048010;28;20123;-42
2022/01/04 03:26:44;;;;;;;9.60;8.35;;;10.00;99.90;;;;;;5046870;28;20108;-43
2022/01/04 03:29:12;;;;;;;9.05;8.15;;;10.00;99.90;;;;;;5047809;28;20064;-43
2022/01/04 03:31:38;;;;;;;15.07;10.75;;;9.90;99.90;;;;;;5047673;28;20031;-43
2022/01/04 03:34:04;;;;;;;12.60;9.20;;;10.00;99.90;;;;;;5046915;28;20036;-43
2022/01/04 03:36:29;;;;;;;11.77;9.63;;;9.90;99.90;;;;;;5047706;28;20021;-44
2022/01/04 03:38:57;;;;;;;11.48;10.25;;;9.90;99.90;;;;;;5047037;28;20071;-44
2022/01/04 03:41:25;;;;;;;11.15;9.95;;;9.90;99.90;;;;;;5047359;28;20024;-43
2022/01/04 03:43:51;;;;;;;10.48;9.20;;;9.90;99.90;;;;;;5047676;28;20461;-43
2022/01/04 03:46:17;;;;;;;10.27;8.23;;;9.90;99.90;;;;;;5046876;28;20028;-43
2022/01/04 03:48:43;;;;;;;11.68;9.55;;;9.90;99.90;;;;;;5047326;28;20280;-43
2022/01/04 03:51:08;;;;;;;9.68;8.70;;;9.90;99.90;;;;;;5046951;28;20072;-42
2022/01/04 03:53:35;;;;;;;10.35;9.23;;;9.90;99.90;;;;;;5046737;28;20021;-43
2022/01/04 03:56:00;;;;;;;7.70;6.85;;;9.90;99.90;;;;;;5047075;28;20075;-43
2022/01/04 03:58:26;;;;;;;10.93;9.27;;;9.90;99.90;;;;;;5047215;28;20021;-43
2022/01/04 04:00:52;;;;;;;11.60;9.65;;;9.90;99.90;;;;;;5046684;28;20020;-43
2022/01/04 04:03:19;;;;;;;10.30;9.15;;;9.90;99.90;;;;;;5047379;28;20457;-42
2022/01/04 04:05:44;;;;;;;9.60;8.50;;;9.90;99.90;;;;;;5047352;28;20059;-42
2022/01/04 04:08:10;;;;;;;10.35;9.05;;;9.90;99.90;;;;;;5046526;28;20481;-44
2022/01/04 04:10:36;;;;;;;10.75;9.18;;;9.90;99.90;;;;;;5047035;28;20025;-43
2022/01/04 04:13:04;;;;;;;11.93;9.68;;;9.90;99.90;;;;;;5047168;28;20040;-43
2022/01/04 04:15:29;;;;;;;11.93;9.75;;;9.90;99.90;;;;;;5026826;28;20124;-43
2022/01/04 04:17:55;;;;;;;8.73;7.82;;;9.90;99.90;;;;;;5041048;28;20540;-43
2022/01/04 04:20:21;;;;;;;11.30;9.60;;;9.90;99.90;;;;;;5047509;28;20381;-43
2022/01/04 04:22:47;;;;;;;12.32;9.85;;;9.90;99.90;;;;;;5045923;28;20025;-43
2022/01/04 04:25:13;;;;;;;11.02;9.23;;;9.90;99.90;;;;;;5047171;28;20021;-42
2022/01/04 04:27:39;;;;;;;11.88;10.27;;;9.90;99.90;;;;;;5046568;28;20116;-43
2022/01/04 04:30:05;;;;;;;11.90;10.68;;;9.90;99.90;;;;;;5046340;28;20755;-45
2022/01/04 04:32:31;;;;;;;13.85;11.05;;;9.90;99.90;;;;;;5046653;28;20507;-43
2022/01/04 04:34:57;;;;;;;11.32;10.23;;;9.90;99.90;;;;;;5046825;28;20057;-42
2022/01/04 04:37:23;;;;;;;10.52;9.52;;;9.90;99.90;;;;;;5046287;28;20021;-43
2022/01/04 04:39:48;;;;;;;11.38;10.10;;;9.80;99.90;;;;;;5046673;28;20029;-43
2022/01/04 04:42:14;;;;;;;11.98;10.77;;;9.80;99.90;;;;;;5046306;28;20048;-42
2022/01/04 04:44:39;;;;;;;10.80;9.70;;;9.80;99.90;;;;;;5046812;28;20500;-43
2022/01/04 04:47:05;;;;;;;12.32;10.07;;;9.80;99.90;;;;;;5046578;28;20029;-42
2022/01/04 04:49:30;;;;;;;12.23;10.93;;;9.80;99.90;;;;;;5045768;28;20477;-42
2022/01/04 04:51:59;;;;;;;14.43;11.68;;;9.80;99.90;;;;;;5046989;28;20470;-43
2022/01/04 04:54:25;;;;;;;11.90;10.70;;;9.80;99.90;;;;;;5046531;28;20029;-43
2022/01/04 04:56:50;;;;;;;12.68;9.48;;;9.80;99.90;;;;;;5046502;28;20025;-42
2022/01/04 04:59:16;;;;;;;12.65;10.98;;;9.80;99.90;;;;;;5046529;28;20111;-44
2022/01/04 05:01:41;;;;;;;14.82;12.30;;;9.70;99.90;;;;;;5046756;28;20032;-44
2022/01/04 05:04:07;;;;;;;13.23;11.23;;;9.70;99.90;;;;;;5047367;28;20416;-42
2022/01/04 05:06:32;;;;;;;14.88;12.43;;;9.70;99.90;;;;;;5050810;28;20366;-43
2022/01/04 05:08:58;;;;;;;16.08;13.30;;;9.70;99.90;;;;;;5050137;28;20038;-44
2022/01/04 05:11:24;;;;;;;14.43;12.77;;;9.60;99.90;;;;;;5049739;28;20416;-43
2022/01/04 05:13:50;;;;;;;12.43;10.88;;;9.60;99.90;;;;;;5050432;28;20033;-43
2022/01/04 05:16:16;;;;;;;14.00;12.43;;;9.60;99.90;;;;;;5050655;28;20024;-43
2022/01/04 05:18:41;;;;;;;13.25;11.35;;;9.60;99.90;;;;;;5049804;28;20033;-43
2022/01/04 05:21:07;;;;;;;14.80;12.55;;;9.60;99.90;;;;;;5050373;28;20032;-44
2022/01/04 05:23:32;;;;;;;13.85;11.40;;;9.60;99.90;;;;;;5049698;28;20468;-43
2022/01/04 05:25:58;;;;;;;14.27;12.77;;;9.60;99.90;;;;;;5049476;28;20039;-44
2022/01/04 05:28:23;;;;;;;13.20;11.63;;;9.60;99.90;;;;;;5050316;28;20037;-43
2022/01/04 05:30:49;;;;;;;15.65;12.95;;;9.60;99.90;;;;;;5049992;28;20065;-42
2022/01/04 05:33:15;;;;;;;13.90;12.25;;;9.60;99.90;;;;;;5050369;28;20029;-43
2022/01/04 05:35:41;;;;;;;13.73;12.23;;;9.60;99.90;;;;;;5049687;28;20095;-43
2022/01/04 05:38:06;;;;;;;11.80;10.60;;;9.60;99.90;;;;;;5049745;28;20021;-43
2022/01/04 05:40:32;;;;;;;12.85;11.38;;;9.60;99.90;;;;;;5049500;28;20090;-43
2022/01/04 05:42:58;;;;;;;11.40;10.15;;;9.60;99.90;;;;;;5049757;28;20100;-41
2022/01/04 05:45:23;;;;;;;13.50;11.38;;;9.60;99.90;;;;;;5049043;28;20025;-43
2022/01/04 05:47:49;;;;;;;16.83;13.75;;;9.60;99.90;;;;;;5049456;28;20040;-43
2022/01/04 05:50:15;;;;;;;12.70;11.02;;;9.60;99.90;;;;;;5049409;28;20045;-43
2022/01/04 05:52:40;;;;;;;13.95;11.68;;;9.60;99.90;;;;;;5048948;28;20045;-43
2022/01/04 05:55:06;;;;;;;12.77;11.48;;;9.60;99.90;;;;;;5049683;28;20078;-42
2022/01/04 05:57:32;;;;;;;13.95;11.63;;;9.60;99.90;;;;;;5049288;28;20021;-43
2022/01/04 05:59:58;;;;;;;13.18;11.18;;;9.60;99.90;;;;;;5048671;28;20021;-44
2022/01/04 06:02:24;;;;;;;14.13;11.77;;;9.60;99.90;;;;;;5049604;28;20029;-42
2022/01/04 06:04:49;;;;;;;12.18;10.98;;;9.60;99.90;;;;;;5050097;28;20029;-44
2022/01/04 06:07:18;;;;;;;13.75;11.32;;;9.60;99.90;;;;;;5048672;28;20024;-43
2022/01/04 06:09:47;;;;;;;13.95;11.70;;;9.60;99.90;;;;;;5049472;28;20028;-46
2022/01/04 06:14:50;;;;;;;17.45;12.40;;;9.60;99.90;;;;;;5048238;28;20033;-43
2022/01/04 06:17:16;;;;;;;13.98;12.35;;;9.60;99.90;;;;;;5048927;28;20103;-42
2022/01/04 06:19:42;;;;;;;15.43;12.68;;;9.60;99.90;;;;;;5049443;28;20798;-42
2022/01/04 06:22:08;;;;;;;14.82;11.93;;;9.60;99.90;;;;;;5048053;28;20032;-42
2022/01/04 06:24:36;;;;;;;13.77;12.35;;;9.50;99.90;;;;;;5048874;28;20029;-43
2022/01/04 06:27:05;;;;;;;13.38;11.02;;;9.60;99.90;;;;;;5048721;28;20098;-43
2022/01/04 06:29:31;;;;;;;14.05;11.38;;;9.60;99.90;;;;;;5048495;28;20064;-42
2022/01/04 06:31:57;;;;;;;13.73;12.23;;;9.60;99.90;;;;;;5048754;28;20036;-43
2022/01/04 06:34:22;;;;;;;13.70;12.05;;;9.50;99.90;;;;;;5049458;28;20028;-42
2022/01/04 06:36:48;;;;;;;14.77;13.05;;;9.60;99.90;;;;;;5047593;28;20025;-43
2022/01/04 06:39:13;;;;;;;15.88;13.57;;;9.60;99.90;;;;;;5049551;28;20465;-44
2022/01/04 06:41:39;;;;;;;16.45;13.48;;;9.50;99.90;;;;;;5047989;28;20025;-43
2022/01/04 06:44:04;;;;;;;14.15;12.27;;;9.50;99.90;;;;;;5048674;28;20072;-42
2022/01/04 06:46:30;;;;;;;14.38;12.18;;;9.50;99.90;;;;;;5048766;28;20461;-42
2022/01/04 06:48:55;;;;;;;15.70;13.40;;;9.50;99.90;;;;;;5047142;28;20033;-43
2022/01/04 06:51:21;;;;;;;12.95;11.25;;;9.50;99.90;;;;;;5049087;28;20071;-42
2022/01/04 06:53:47;;;;;;;14.82;12.77;;;9.50;99.90;;;;;;5043763;28;20025;-43
2022/01/04 06:56:12;;;;;;;15.63;12.48;;;9.50;99.90;;;;;;5063897;28;20024;-43
2022/01/04 06:58:38;;;;;;;14.35;11.80;;;9.50;99.90;;;;;;5047633;28;20028;-43
2022/01/04 07:01:03;;;;;;;15.98;13.77;;;9.50;99.90;;;;;;5047068;28;20693;-43
2022/01/04 07:03:30;;;;;;;17.45;12.77;;;9.50;99.90;;;;;;5046458;28;20476;-43
2022/01/04 07:05:56;;;;;;;14.93;12.57;;;9.50;99.90;;;;;;5047798;28;20036;-42
2022/01/04 07:08:21;;;;;;;18.35;14.35;;;9.50;99.90;;;;;;5047470;28;20021;-44
2022/01/04 07:10:47;;;;;;;18.20;13.45;;;9.50;99.90;;;;;;5046421;28;20058;-43
2022/01/04 07:13:12;;;;;;;14.85;12.85;;;9.50;99.90;;;;;;5046954;28;20029;-42
2022/01/04 07:15:38;;;;;;;17.80;14.70;;;9.40;99.90;;;;;;5047444;28;20017;-42
2022/01/04 07:18:04;;;;;;;15.73;14.02;;;9.40;99.90;;;;;;5045832;28;20031;-43
2022/01/04 07:20:29;;;;;;;18.73;15.18;;;9.40;99.90;;;;;;5046828;28;20182;-43
2022/01/04 07:22:55;;;;;;;17.15;14.35;;;9.40;99.90;;;;;;5047207;28;20730;-42
2022/01/04 07:25:20;;;;;;;21.17;15.80;;;9.40;99.90;;;;;;5047323;28;20028;-43
2022/01/04 07:27:46;;;;;;;16.25;12.88;;;9.40;99.90;;;;;;5047405;28;20037;-44
2022/01/04 07:30:12;;;;;;;17.80;15.15;;;9.40;99.90;;;;;;5047830;28;20306;-42
2022/01/04 07:32:37;;;;;;;18.98;15.60;;;9.40;99.90;;;;;;5046588;28;20507;-43
2022/01/04 07:35:03;;;;;;;19.63;14.30;;;9.30;99.90;;;;;;5046672;28;20021;-43
2022/01/04 07:37:29;;;;;;;20.50;15.20;;;9.40;99.90;;;;;;5047287;28;20063;-43
2022/01/04 07:39:54;;;;;;;17.35;13.88;;;9.40;99.90;;;;;;5046799;28;20033;-43
2022/01/04 07:42:23;;;;;;;19.10;15.13;;;9.30;99.90;;;;;;5048036;28;20115;-43
2022/01/04 07:44:48;;;;;;;16.73;14.07;;;9.30;99.90;;;;;;5047706;28;20021;-43
2022/01/04 07:47:14;;;;;;;18.55;14.23;;;9.30;99.90;;;;;;5046917;28;20641;-44
2022/01/04 07:49:39;;;;;;;16.83;14.48;;;9.30;99.90;;;;;;5045927;28;20094;-43
2022/01/04 07:52:05;;;;;;;19.77;15.60;;;9.30;99.90;;;;;;5045060;28;20474;-43
2022/01/04 07:54:30;;;;;;;17.98;14.00;;;9.20;99.90;;;;;;5047111;28;20112;-43
2022/01/04 07:56:56;;;;;;;16.92;13.82;;;9.30;99.90;;;;;;5047316;28;20028;-43
2022/01/04 07:59:22;;;;;;;18.02;14.43;;;9.30;99.90;;;;;;5046889;28;20067;-44
2022/01/04 08:01:47;;;;;;;16.52;13.38;;;9.30;99.90;;;;;;5046894;28;20131;-43
2022/01/04 08:04:13;;;;;;;17.13;13.00;;;9.30;99.90;;;;;;5047427;28;20544;-45
2022/01/04 08:06:41;;;;;;;15.50;12.82;;;9.30;99.90;;;;;;5046486;28;20388;-43
2022/01/04 08:09:07;;;;;;;18.38;13.75;;;9.30;99.90;;;;;;5047114;28;20075;-43
2022/01/04 08:11:32;;;;;;;17.10;13.82;;;9.30;99.90;;;;;;5046473;28;20049;-43
2022/01/04 08:13:58;;;;;;;19.55;14.27;;;9.30;99.90;;;;;;5046448;28;20064;-44
2022/01/04 08:16:23;;;;;;;16.70;12.70;;;9.30;99.90;;;;;;5046786;28;20082;-43
2022/01/04 08:18:49;;;;;;;18.83;14.32;;;9.30;99.90;;;;;;5047311;28;20021;-43
2022/01/04 08:21:17;;;;;;;18.02;14.20;;;9.40;99.90;;;;;;5045826;28;20065;-43
2022/01/04 08:23:43;;;;;;;16.75;12.85;;;9.40;99.90;;;;;;5046830;28;20072;-44
2022/01/04 08:26:08;;;;;;;17.80;14.13;;;9.40;99.90;;;;;;5046779;28;20481;-43
2022/01/04 08:28:34;;;;;;;21.13;15.57;;;9.40;99.90;;;;;;5046378;28;20102;-43
2022/01/04 08:30:59;;;;;;;19.23;14.95;;;9.40;99.90;;;;;;5046521;28;20050;-44
2022/01/04 08:33:25;;;;;;;20.55;15.80;;;9.40;99.90;;;;;;5047440;28;20031;-42
2022/01/04 08:35:51;;;;;;;23.02;15.95;;;9.40;99.90;;;;;;5045823;28;20025;-43
2022/01/04 08:38:16;;;;;;;19.45;15.52;;;9.40;99.90;;;;;;5046898;28;20485;-43
2022/01/04 08:40:42;;;;;;;19.75;14.88;;;9.40;99.90;;;;;;5050790;28;20536;-43
2022/01/04 08:43:07;;;;;;;21.40;15.50;;;9.40;99.90;;;;;;5048618;28;20058;-43
2022/01/04 08:45:34;;;;;;;22.75;16.23;;;9.40;99.90;;;;;;5049188;28;20025;-44
2022/01/04 08:48:00;;;;;;;23.52;17.60;;;9.40;99.90;;;;;;5050828;28;20037;-44
2022/01/04 08:50:27;;;;;;;23.10;17.35;;;9.40;99.90;;;;;;5068484;28;20098;-43
2022/01/04 08:52:55;;;;;;;19.90;15.35;;;9.40;99.90;;;;;;5049226;28;20028;-43
2022/01/04 08:55:23;;;;;;;22.15;15.85;;;9.40;99.90;;;;;;5050269;28;20583;-42
2022/01/04 08:57:48;;;;;;;20.75;15.20;;;9.40;99.90;;;;;;5050564;28;20032;-43
2022/01/04 09:00:15;;;;;;;19.73;15.40;;;9.40;99.90;;;;;;5051257;28;20037;-43
2022/01/04 09:02:41;;;;;;;21.27;16.13;;;9.40;99.90;;;;;;5049358;28;20025;-42
2022/01/04 09:05:07;;;;;;;23.00;17.48;;;9.50;99.90;;;;;;5050666;28;20094;-43
2022/01/04 09:07:33;;;;;;;28.45;18.48;;;9.50;99.90;;;;;;5050221;28;20036;-43
2022/01/04 09:09:59;;;;;;;22.75;16.45;;;9.50;99.90;;;;;;5050252;28;20033;-42
2022/01/04 09:12:30;;;;;;;23.27;17.13;;;9.50;99.90;;;;;;5049769;28;20072;-42
2022/01/04 09:15:04;;;;;;;25.42;18.10;;;9.60;99.90;;;;;;5050163;28;20040;-44
2022/01/04 09:20:16;;;;;;;21.85;16.27;;;9.60;99.90;;;;;;5050892;28;20067;-43
2022/01/04 09:22:42;;;;;;;24.42;18.10;;;9.60;99.90;;;;;;5049634;28;20053;-43
2022/01/04 09:25:09;;;;;;;19.63;14.90;;;9.60;99.90;;;;;;5047474;28;20039;-42
2022/01/04 09:27:36;;;;;;;23.67;17.50;;;9.50;99.90;;;;;;5049408;28;20047;-43
2022/01/04 09:30:04;;;;;;;23.40;16.48;;;9.50;99.90;;;;;;5050656;28;20029;-42
2022/01/04 09:32:35;;;;;;;21.55;15.80;;;9.50;99.90;;;;;;5048983;28;20381;-42
2022/01/04 09:35:01;;;;;;;19.95;15.57;;;9.50;99.90;;;;;;5050002;28;20029;-42
2022/01/04 09:37:26;;;;;;;23.98;18.10;;;9.50;99.90;;;;;;5049366;28;20024;-43
2022/01/04 09:39:52;;;;;;;22.88;17.70;;;9.40;99.90;;;;;;5049664;28;20086;-44
2022/01/04 09:42:21;;;;;;;23.48;18.23;;;9.40;99.90;;;;;;5049967;28;20047;-43
2022/01/04 09:44:48;;;;;;;23.27;17.30;;;9.40;99.90;;;;;;5047155;28;20737;-43
2022/01/04 09:47:14;;;;;;;24.25;17.70;;;9.40;99.90;;;;;;5049861;28;20388;-42
2022/01/04 09:49:39;;;;;;;23.63;17.70;;;9.40;99.90;;;;;;5048786;28;20048;-43
2022/01/04 09:52:08;;;;;;;21.58;16.40;;;9.40;99.90;;;;;;5049436;28;20290;-43
2022/01/04 09:54:34;;;;;;;17.02;13.80;;;9.30;99.90;;;;;;5048820;28;20025;-42
2022/01/04 09:56:59;;;;;;;15.40;11.23;;;9.30;99.90;;;;;;5052359;28;20358;-42
2022/01/04 09:59:25;;;;;;;12.50;8.88;;;9.30;99.90;;;;;;5050012;28;20525;-42
2022/01/04 10:01:55;;;;;;;8.38;6.22;;;9.20;99.90;;;;;;5049712;28;20029;-43
2022/01/04 10:04:24;;;;;;;7.70;5.45;;;9.20;99.90;;;;;;5049081;28;20025;-43
2022/01/04 10:07:01;;;;;;;7.18;5.25;;;9.10;99.90;;;;;;5048831;28;20087;-43
2022/01/04 10:09:45;;;;;;;6.25;5.05;;;9.10;99.90;;;;;;5049219;28;20076;-43
2022/01/04 10:12:14;;;;;;;7.28;5.43;;;9.10;99.90;;;;;;5049568;28;20056;-44
2022/01/04 10:14:43;;;;;;;7.75;5.88;;;9.10;99.90;;;;;;5048314;28;20032;-44
2022/01/04 10:17:14;;;;;;;8.30;5.70;;;9.20;99.90;;;;;;5049074;28;20024;-43
2022/01/04 10:19:46;;;;;;;7.55;5.50;;;9.10;99.90;;;;;;5048600;28;20053;-42
2022/01/04 10:22:16;;;;;;;7.10;5.10;;;9.20;99.90;;;;;;5049395;28;20401;-43
2022/01/04 10:24:43;;;;;;;6.40;5.28;;;9.20;99.90;;;;;;5048927;28;20019;-43
2022/01/04 10:27:31;;;;;;;7.40;5.05;;;9.20;99.90;;;;;;5048677;28;20025;-43
2022/01/04 10:30:22;;;;;;;7.38;5.22;;;9.20;99.90;;;;;;5048381;28;20068;-43
2022/01/04 10:33:02;;;;;;;10.00;4.50;;;9.20;99.90;;;;;;5048063;28;20558;-44
2022/01/04 10:35:33;;;;;;;7.10;5.80;;;9.20;99.90;;;;;;5047950;28;20032;-42
2022/01/04 10:38:23;;;;;;;8.07;5.50;;;9.20;99.90;;;;;;5049251;28;20032;-43
2022/01/04 10:41:10;;;;;;;10.40;7.28;;;9.20;99.90;;;;;;5044390;28;20060;-43
2022/01/04 10:43:44;;;;;;;8.48;6.82;;;9.20;99.90;;;;;;5021214;28;20068;-43
2022/01/04 10:46:12;;;;;;;8.10;6.38;;;9.30;99.90;;;;;;5045205;28;20036;-43
2022/01/04 10:48:41;;;;;;;10.35;7.65;;;9.30;99.90;;;;;;5027883;28;20036;-43
2022/01/04 10:51:16;;;;;;;15.85;10.18;;;9.30;99.90;;;;;;5048064;28;20374;-43
2022/01/04 10:53:44;;;;;;;10.95;8.40;;;9.30;99.90;;;;;;5048594;28;20017;-43
2022/01/04 10:56:15;;;;;;;9.82;8.32;;;9.30;99.90;;;;;;5047844;28;20025;-43
2022/01/04 10:58:46;;;;;;;12.55;9.35;;;9.40;99.90;;;;;;5048825;28;20033;-43
2022/01/04 11:01:14;;;;;;;14.95;10.82;;;9.40;99.90;;;;;;5047379;28;20082;-42
2022/01/04 11:03:48;;;;;;;14.82;11.30;;;9.40;99.90;;;;;;5046307;28;20051;-43
2022/01/04 11:06:15;;;;;;;14.88;11.60;;;9.50;99.90;;;;;;5047013;28;20087;-43
2022/01/04 11:08:43;;;;;;;14.32;11.45;;;9.50;99.90;;;;;;5047801;28;20040;-43
2022/01/04 11:11:08;;;;;;;14.82;11.82;;;9.60;99.90;;;;;;5046674;28;20076;-43
2022/01/04 11:13:34;;;;;;;13.45;10.43;;;9.60;99.90;;;;;;5046621;28;20496;-46
2022/01/04 11:16:03;;;;;;;14.48;11.52;;;9.60;99.90;;;;;;5046812;28;20025;-42
2022/01/04 11:18:30;;;;;;;13.15;10.43;;;9.60;99.90;;;;;;5047174;28;20025;-43
2022/01/04 11:20:57;;;;;;;17.15;13.40;;;9.60;99.90;;;;;;5047107;28;20104;-43
2022/01/04 11:23:31;;;;;;;15.98;13.60;;;9.60;99.90;;;;;;5046729;28;20079;-43
2022/01/04 11:25:59;;;;;;;19.05;14.68;;;9.60;99.90;;;;;;5047132;28;20186;-43
2022/01/04 11:28:26;;;;;;;16.17;13.07;;;9.60;99.90;;;;;;5046930;28;20021;-43
2022/01/04 11:31:09;;;;;;;19.73;14.02;;;9.60;99.90;;;;;;5045899;28;20519;-42
2022/01/04 11:34:05;;;;;;;19.55;15.20;;;9.60;99.90;;;;;;5044905;28;20025;-43
2022/01/04 11:36:35;;;;;;;19.35;14.48;;;9.60;99.90;;;;;;5046379;28;20151;-43
2022/01/04 11:39:00;;;;;;;15.95;13.57;;;9.60;99.90;;;;;;5046510;28;20032;-44
2022/01/04 11:41:44;;;;;;;17.20;13.02;;;9.50;99.90;;;;;;5031712;28;20040;-42
2022/01/04 11:44:21;;;;;;;19.50;13.73;;;9.50;99.90;;;;;;5034909;28;20401;-44
2022/01/04 11:47:08;;;;;;;15.35;12.52;;;9.50;99.90;;;;;;5046527;28;20016;-44
2022/01/04 11:49:36;;;;;;;18.70;14.07;;;9.50;99.90;;;;;;5036790;28;20079;-42
2022/01/04 11:52:04;;;;;;;15.45;11.93;;;9.40;99.90;;;;;;5045954;28;20025;-42
2022/01/04 11:54:31;;;;;;;13.82;11.65;;;9.40;99.90;;;;;;5045853;28;20037;-44
2022/01/04 11:57:14;;;;;;;15.23;11.43;;;9.40;99.90;;;;;;5031192;28;20048;-44
2022/01/04 11:59:58;;;;;;;13.95;10.95;;;9.40;99.90;;;;;;5045896;28;20674;-43
2022/01/04 12:02:32;;;;;;;17.23;11.77;;;9.40;99.90;;;;;;5046538;28;20023;-45
2022/01/04 12:04:59;;;;;;;17.85;12.45;;;9.30;99.90;;;;;;5036260;28;20108;-43
2022/01/04 12:07:49;;;;;;;15.57;12.18;;;9.30;99.90;;;;;;5045319;28;20036;-44
2022/01/04 12:10:20;;;;;;;17.38;12.85;;;9.30;99.90;;;;;;5037391;28;20060;-44
2022/01/04 12:13:09;;;;;;;15.90;11.38;;;9.40;99.90;;;;;;5050809;28;20025;-43
2022/01/04 12:15:35;;;;;;;16.30;12.50;;;9.40;99.90;;;;;;5038122;28;20110;-42
2022/01/04 12:18:28;;;;;;;14.93;11.07;;;9.40;99.90;;;;;;5044907;28;20484;-42
2022/01/04 12:20:56;;;;;;;17.13;11.27;;;9.40;99.90;;;;;;5044778;28;20025;-43
2022/01/04 12:23:31;;;;;;;12.95;10.30;;;9.40;99.90;;;;;;5057546;28;20476;-44
2022/01/04 12:26:03;;;;;;;11.27;8.55;;;9.40;99.90;;;;;;5044630;28;20112;-42
2022/01/04 12:28:37;;;;;;;14.52;9.07;;;9.30;99.90;;;;;;5056724;28;20587;-44
2022/01/04 12:33:48;;;;;;;13.68;9.48;;;9.30;99.90;;;;;;5045328;28;20028;-44
2022/01/04 12:36:27;;;;;;;10.48;7.90;;;9.20;99.90;;;;;;5045923;28;20627;-43
2022/01/04 12:38:55;;;;;;;11.77;7.60;;;9.20;99.90;;;;;;5045909;28;20049;-42
2022/01/04 12:41:21;;;;;;;11.65;7.78;;;9.20;99.90;;;;;;5046142;28;20048;-43
2022/01/04 12:43:50;;;;;;;7.70;6.15;;;9.10;99.90;;;;;;5044888;28;20491;-43
2022/01/04 12:46:28;;;;;;;7.72;4.93;;;9.00;99.90;;;;;;5035368;28;20029;-43
2022/01/04 12:48:56;;;;;;;5.97;3.25;;;8.90;99.90;;;;;;5045010;28;20095;-42
2022/01/04 12:51:35;;;;;;;6.13;3.50;;;8.80;99.90;;;;;;5046683;28;20036;-43
2022/01/04 12:54:07;;;;;;;6.10;2.85;;;8.70;99.90;;;;;;5045791;28;20017;-42